createdAt,value
2022-12-23T00:02:24.084Z,67.87
2022-12-23T00:05:26.590Z,64.28
2022-12-23T00:08:28.807Z,57.08
2022-12-23T00:11:31.220Z,61.13
2022-12-23T00:14:51.683Z,54.25
2022-12-23T00:17:54.140Z,64.43
2022-12-23T00:21:08.485Z,69.40
2022-12-23T00:24:12.150Z,64.18
2022-12-23T00:27:14.303Z,68.10
2022-12-23T00:30:17.012Z,55.47
2022-12-23T00:33:24.636Z,66.22
2022-12-23T00:36:29.890Z,68.68
2022-12-23T00:39:54.785Z,65.28
2022-12-23T00:42:58.696Z,62.00
2022-12-23T00:46:00.887Z,60.17
2022-12-23T00:49:22.297Z,60.33
2022-12-23T00:52:24.464Z,61.17
2022-12-23T00:55:27.076Z,56.63
2022-12-23T00:58:29.389Z,60.55
2022-12-23T01:01:50.658Z,66.22
2022-12-23T01:05:11.429Z,59.78
2022-12-23T01:08:13.874Z,70.97
2022-12-23T01:11:16.099Z,61.60
2022-12-23T01:14:18.663Z,60.75
2022-12-23T01:17:20.868Z,71.47
2022-12-23T01:20:23.753Z,66.20
2022-12-23T01:23:25.880Z,56.05
2022-12-23T01:26:28.366Z,62.75
2022-12-23T01:29:30.740Z,63.22
2022-12-23T01:32:33.209Z,61.55
2022-12-23T01:35:35.381Z,59.45
2022-12-23T01:38:37.803Z,61.63
2022-12-23T01:41:58.411Z,68.70
2022-12-23T01:45:02.554Z,68.55
2022-12-23T01:48:11.454Z,67.05
2022-12-23T01:51:34.064Z,70.32
2022-12-23T01:54:37.322Z,67.80
2022-12-23T01:57:42.278Z,72.72
2022-12-23T02:01:03.478Z,73.35
2022-12-23T02:04:10.878Z,65.95
2022-12-23T02:07:32.227Z,77.43
2022-12-23T02:11:06.999Z,77.95
2022-12-23T02:14:35.615Z,82.20
2022-12-23T02:17:59.954Z,75.62
2022-12-23T02:21:23.866Z,87.90
2022-12-23T02:24:48.130Z,83.50
2022-12-23T02:28:10.639Z,90.78
2022-12-23T02:31:39.136Z,83.40
2022-12-23T02:35:11.208Z,78.43
2022-12-23T02:38:29.572Z,90.22
2022-12-23T02:41:56.450Z,88.28
2022-12-23T02:45:39.917Z,97.37
2022-12-23T02:49:11.306Z,90.28
2022-12-23T02:52:17.094Z,94.80
2022-12-23T02:55:24.499Z,101.85
2022-12-23T02:58:34.026Z,95.43
2022-12-23T03:01:38.775Z,99.62
2022-12-23T03:04:42.306Z,98.85
2022-12-23T03:07:44.623Z,100.87
2022-12-23T03:11:04.873Z,96.75
2022-12-23T03:14:21.024Z,105.82
2022-12-23T03:17:42.984Z,84.87
2022-12-23T03:20:52.295Z,103.93
2022-12-23T03:24:08.567Z,104.97
2022-12-23T03:27:22.211Z,109.65
2022-12-23T03:30:25.356Z,103.70
2022-12-23T03:33:51.856Z,94.80
2022-12-23T03:36:58.014Z,104.57
2022-12-23T03:40:19.359Z,106.05
2022-12-23T03:43:34.463Z,125.87
2022-12-23T03:46:46.161Z,105.82
2022-12-23T03:50:01.801Z,117.22
2022-12-23T03:53:22.736Z,94.10
2022-12-23T03:56:31.772Z,100.30
2022-12-23T03:59:40.678Z,112.90
2022-12-23T04:02:59.534Z,102.70
2022-12-23T04:06:08.061Z,141.40
2022-12-23T04:09:14.410Z,110.37
2022-12-23T04:12:25.534Z,121.47
2022-12-23T04:15:28.351Z,122.53
2022-12-23T04:18:30.792Z,148.00
2022-12-23T04:21:32.993Z,153.43
2022-12-23T04:24:35.414Z,163.05
2022-12-23T04:27:37.791Z,150.05
2022-12-23T04:30:40.209Z,128.98
2022-12-23T04:33:42.375Z,135.32
2022-12-23T04:36:44.791Z,124.38
2022-12-23T04:39:46.938Z,160.00
2022-12-23T04:42:49.441Z,193.37
2022-12-23T04:45:51.940Z,134.55
2022-12-23T04:48:54.392Z,165.50
2022-12-23T04:51:56.593Z,136.95
2022-12-23T04:54:59.046Z,92.65
2022-12-23T04:58:01.170Z,81.63
2022-12-23T05:01:12.854Z,110.82
2022-12-23T05:04:15.137Z,99.50
2022-12-23T05:07:17.713Z,98.35
2022-12-23T05:10:19.953Z,90.45
2022-12-23T05:13:22.712Z,72.28
2022-12-23T05:16:24.961Z,80.43
2022-12-23T05:19:27.463Z,68.07
2022-12-23T05:22:29.601Z,72.30
2022-12-23T05:25:36.617Z,86.47
2022-12-23T05:28:38.940Z,80.55
2022-12-23T05:31:41.390Z,95.53
2022-12-23T05:34:43.550Z,81.55
2022-12-23T05:37:45.987Z,80.50
2022-12-23T05:40:48.767Z,82.47
2022-12-23T05:43:54.119Z,101.57
2022-12-23T05:46:56.381Z,88.70
2022-12-23T05:49:58.892Z,74.35
2022-12-23T05:53:01.157Z,87.32
2022-12-23T05:56:05.479Z,62.03
2022-12-23T05:59:07.675Z,90.68
2022-12-23T06:02:10.341Z,71.60
2022-12-23T06:05:13.626Z,82.47
2022-12-23T06:08:15.812Z,60.90
2022-12-23T06:11:18.250Z,53.80
2022-12-23T06:14:25.175Z,47.22
2022-12-23T06:17:31.091Z,44.50
2022-12-23T06:20:33.344Z,51.72
2022-12-23T06:23:35.903Z,70.97
2022-12-23T06:26:38.083Z,49.85
2022-12-23T06:29:41.033Z,48.03
2022-12-23T06:32:43.270Z,52.67
2022-12-23T06:35:45.881Z,50.17
2022-12-23T06:38:48.017Z,53.47
2022-12-23T06:41:50.597Z,44.65
2022-12-23T06:44:52.777Z,61.50
2022-12-23T06:47:55.267Z,46.65
2022-12-23T06:50:57.519Z,62.58
2022-12-23T06:54:00.438Z,49.05
2022-12-23T06:57:02.804Z,46.03
2022-12-23T07:00:09.146Z,65.00
2022-12-23T07:03:11.349Z,60.53
2022-12-23T07:06:14.042Z,44.47
2022-12-23T07:09:16.293Z,45.25
2022-12-23T07:12:19.374Z,60.55
2022-12-23T07:15:21.524Z,65.93
2022-12-23T07:18:24.809Z,41.42
2022-12-23T07:21:29.824Z,58.97
2022-12-23T07:24:32.716Z,50.38
2022-12-23T07:27:35.472Z,52.60
2022-12-23T07:30:37.962Z,46.45
2022-12-23T07:33:40.204Z,60.92
2022-12-23T07:36:42.612Z,59.45
2022-12-23T07:39:44.774Z,61.05
2022-12-23T07:42:53.779Z,55.92
2022-12-23T07:46:00.346Z,60.60
2022-12-23T07:49:03.013Z,54.63
2022-12-23T07:52:05.263Z,45.20
2022-12-23T07:55:08.128Z,54.72
2022-12-23T07:58:10.306Z,62.80
2022-12-23T08:01:12.796Z,48.90
2022-12-23T08:04:15.281Z,45.25
2022-12-23T08:07:17.467Z,45.12
2022-12-23T08:10:19.933Z,52.15
2022-12-23T08:13:22.095Z,46.75
2022-12-23T08:16:24.526Z,47.95
2022-12-23T08:19:26.706Z,51.55
2022-12-23T08:22:31.883Z,46.40
2022-12-23T08:25:34.008Z,55.42
2022-12-23T08:28:38.169Z,52.75
2022-12-23T08:31:40.358Z,49.70
2022-12-23T08:34:43.037Z,51.35
2022-12-23T08:37:45.296Z,57.55
2022-12-23T08:40:47.829Z,60.20
2022-12-23T08:43:51.301Z,69.93
2022-12-23T08:46:55.123Z,55.42
2022-12-23T08:49:57.339Z,64.82
2022-12-23T08:52:59.759Z,52.62
2022-12-23T08:56:08.178Z,65.65
2022-12-23T08:59:19.315Z,66.97
2022-12-23T09:02:22.207Z,60.97
2022-12-23T09:05:24.914Z,61.25
2022-12-23T09:08:27.110Z,64.32
2022-12-23T09:11:30.182Z,63.33
2022-12-23T09:14:32.341Z,56.90
2022-12-23T09:17:34.807Z,87.50
2022-12-23T09:20:37.976Z,112.75
2022-12-23T09:23:40.810Z,86.95
2022-12-23T09:26:43.007Z,79.75
2022-12-23T09:29:45.384Z,101.45
2022-12-23T09:32:47.557Z,93.32
2022-12-23T09:35:49.960Z,74.97
2022-12-23T09:38:57.143Z,66.75
2022-12-23T09:42:07.948Z,71.18
2022-12-23T09:45:40.308Z,67.93
2022-12-23T09:49:03.082Z,85.97
2022-12-23T09:52:12.100Z,59.05
2022-12-23T09:55:15.779Z,68.50
2022-12-23T09:58:23.505Z,69.07
2022-12-23T10:01:51.615Z,55.25
2022-12-23T10:05:05.150Z,49.88
2022-12-23T10:08:22.644Z,49.30
2022-12-23T10:11:32.056Z,46.90
2022-12-23T10:17:41.968Z,48.15
2022-12-23T10:20:53.263Z,50.10
2022-12-23T10:23:55.881Z,55.05
2022-12-23T10:27:04.153Z,50.20
2022-12-23T10:30:51.353Z,63.05
2022-12-23T10:34:24.931Z,61.10
2022-12-23T10:37:58.327Z,51.05
2022-12-23T10:41:16.595Z,56.80
2022-12-23T10:44:43.436Z,52.28
2022-12-23T10:48:00.044Z,58.15
2022-12-23T10:51:09.868Z,58.00
2022-12-23T10:54:34.785Z,56.90
2022-12-23T10:57:37.228Z,83.75
2022-12-23T11:00:42.978Z,60.50
2022-12-23T11:04:02.551Z,71.03
2022-12-23T11:07:42.053Z,73.82
2022-12-23T11:10:35.086Z,72.43
2022-12-23T11:13:40.535Z,65.30
2022-12-23T11:16:46.433Z,65.68
2022-12-23T11:20:07.827Z,74.22
2022-12-23T11:23:27.316Z,60.50
2022-12-23T11:26:29.524Z,55.35
2022-12-23T11:29:35.456Z,56.40
2022-12-23T11:32:37.856Z,59.25
2022-12-23T11:35:40.331Z,62.00
2022-12-23T11:41:26.499Z,79.28
2022-12-23T11:44:37.891Z,77.10
2022-12-23T11:47:41.539Z,71.37
2022-12-23T11:50:44.216Z,61.13
2022-12-23T11:53:46.322Z,77.95
2022-12-23T11:56:51.995Z,66.25
2022-12-23T12:00:01.435Z,67.28
2022-12-23T12:03:06.411Z,62.65
2022-12-23T12:06:14.949Z,66.37
2022-12-23T12:09:17.924Z,69.57
2022-12-23T12:12:21.947Z,75.10
2022-12-23T12:15:39.317Z,74.18
2022-12-23T12:18:43.827Z,77.47
2022-12-23T12:21:48.452Z,66.05
2022-12-23T12:24:53.564Z,73.78
2022-12-23T12:28:06.253Z,75.95
2022-12-23T12:31:11.832Z,84.10
2022-12-23T12:34:35.699Z,76.80
2022-12-23T12:37:48.145Z,73.25
2022-12-23T12:41:16.573Z,72.50
2022-12-23T12:44:43.694Z,79.15
2022-12-23T12:47:55.196Z,78.62
2022-12-23T12:51:26.470Z,81.65
2022-12-23T12:55:01.798Z,73.25
2022-12-23T12:58:04.250Z,72.87
2022-12-23T13:01:33.024Z,82.93
2022-12-23T13:05:09.363Z,74.75
2022-12-23T13:08:42.888Z,88.22
2022-12-23T13:12:01.771Z,88.40
2022-12-23T13:15:23.493Z,71.07
2022-12-23T13:18:39.106Z,75.05
2022-12-23T13:21:55.075Z,83.25
2022-12-23T13:25:08.889Z,86.15
2022-12-23T13:28:20.009Z,75.43
2022-12-23T13:31:46.852Z,71.70
2022-12-23T13:35:09.928Z,76.62
2022-12-23T13:38:30.699Z,82.18
2022-12-23T13:41:36.936Z,73.03
2022-12-23T13:44:39.753Z,96.35
2022-12-23T13:48:04.315Z,75.43
2022-12-23T13:51:30.593Z,82.43
2022-12-23T13:55:07.443Z,80.25
2022-12-23T13:58:21.848Z,78.37
2022-12-23T14:01:42.371Z,84.37
2022-12-23T14:04:59.447Z,77.03
2022-12-23T14:08:07.017Z,84.62
2022-12-23T14:11:21.813Z,97.18
2022-12-23T14:14:53.469Z,84.45
2022-12-23T14:18:17.760Z,102.05
2022-12-23T14:21:25.599Z,87.90
2022-12-23T14:24:37.153Z,105.23
2022-12-23T14:27:58.036Z,98.37
2022-12-23T14:31:03.760Z,109.43
2022-12-23T14:34:17.845Z,98.22
2022-12-23T14:37:20.248Z,94.00
2022-12-23T14:40:37.841Z,87.40
2022-12-23T14:43:46.372Z,92.47
2022-12-23T14:46:48.558Z,100.27
2022-12-23T14:49:51.271Z,96.72
2022-12-23T14:53:03.652Z,86.45
2022-12-23T14:56:15.051Z,105.93
2022-12-23T14:59:29.993Z,105.68
2022-12-23T15:02:41.391Z,97.37
2022-12-23T15:05:43.964Z,87.78
2022-12-23T15:08:50.608Z,98.40
2022-12-23T15:11:55.207Z,97.22
2022-12-23T15:15:00.149Z,98.18
2022-12-23T15:18:12.349Z,112.25
2022-12-23T15:21:14.747Z,79.32
2022-12-23T15:24:20.147Z,100.35
2022-12-23T15:27:27.908Z,103.12
2022-12-23T15:30:36.504Z,100.68
2022-12-23T15:37:01.847Z,105.12
2022-12-23T15:40:12.737Z,110.03
2022-12-23T15:43:23.819Z,113.05
2022-12-23T15:46:30.075Z,102.03
2022-12-23T15:49:32.682Z,119.25
2022-12-23T15:52:35.124Z,97.20
2022-12-23T15:55:40.273Z,114.82
2022-12-23T15:58:42.971Z,93.55
2022-12-23T16:01:45.315Z,94.22
2022-12-23T16:04:56.350Z,89.13
2022-12-23T16:08:19.333Z,92.43
2022-12-23T16:11:38.007Z,93.10
2022-12-23T16:14:41.356Z,93.30
2022-12-23T16:17:44.010Z,125.15
2022-12-23T16:20:53.653Z,97.93
2022-12-23T16:23:56.983Z,106.45
2022-12-23T16:26:59.185Z,90.45
2022-12-23T16:30:24.121Z,83.00
2022-12-23T16:33:41.461Z,85.47
2022-12-23T16:36:43.976Z,77.62
2022-12-23T16:39:46.115Z,80.70
2022-12-23T16:42:48.578Z,85.75
2022-12-23T16:45:54.763Z,75.93
2022-12-23T16:48:59.710Z,89.82
2022-12-23T16:52:05.404Z,94.13
2022-12-23T16:55:19.279Z,79.60
2022-12-23T16:58:21.477Z,87.43
2022-12-23T17:01:27.870Z,89.53
2022-12-23T17:04:30.125Z,80.05
2022-12-23T17:07:32.541Z,83.95
2022-12-23T17:10:35.340Z,90.90
2022-12-23T17:13:38.300Z,86.85
2022-12-23T17:16:40.558Z,85.32
2022-12-23T17:19:43.085Z,93.32
2022-12-23T17:22:49.061Z,87.32
2022-12-23T17:25:52.170Z,75.62
2022-12-23T17:28:55.082Z,88.90
2022-12-23T17:31:57.705Z,82.00
2022-12-23T17:34:59.880Z,97.10
2022-12-23T17:38:02.349Z,97.12
2022-12-23T17:41:04.807Z,97.45
2022-12-23T17:44:07.689Z,101.57
2022-12-23T17:47:17.637Z,99.22
2022-12-23T17:50:20.415Z,99.07
2022-12-23T17:53:22.605Z,98.05
2022-12-23T17:56:27.361Z,162.37
2022-12-23T17:59:29.545Z,119.50
2022-12-23T18:02:35.127Z,104.93
2022-12-23T18:05:37.578Z,133.68
2022-12-23T18:08:40.208Z,136.77
2022-12-23T18:11:45.309Z,104.15
2022-12-23T18:14:47.584Z,127.90
2022-12-23T18:17:51.192Z,140.82
2022-12-23T18:20:55.815Z,120.45
2022-12-23T18:23:59.834Z,103.30
2022-12-23T18:27:02.037Z,111.30
2022-12-23T18:30:04.921Z,165.00
2022-12-23T18:33:10.425Z,124.18
2022-12-23T18:36:24.301Z,158.80
2022-12-23T18:39:26.469Z,132.60
2022-12-23T18:42:28.904Z,128.55
2022-12-23T18:45:34.973Z,192.25
2022-12-23T18:48:37.405Z,186.02
2022-12-23T18:51:39.558Z,144.05
2022-12-23T18:54:42.034Z,104.97
2022-12-23T18:57:44.232Z,153.75
2022-12-23T19:00:48.248Z,134.50
2022-12-23T19:03:50.382Z,125.12
2022-12-23T19:06:54.084Z,142.37
2022-12-23T19:09:56.243Z,105.78
2022-12-23T19:12:59.627Z,138.85
2022-12-23T19:16:01.910Z,126.72
2022-12-23T19:19:04.446Z,158.32
2022-12-23T19:22:06.567Z,204.52
2022-12-23T19:25:11.536Z,148.45
2022-12-23T19:28:13.661Z,117.97
2022-12-23T19:31:17.293Z,152.57
2022-12-23T19:34:19.491Z,135.60
2022-12-23T19:37:21.913Z,111.32
2022-12-23T19:40:24.156Z,137.43
2022-12-23T19:43:26.556Z,99.45
2022-12-23T19:46:28.790Z,159.45
2022-12-23T19:49:31.473Z,99.75
2022-12-23T19:52:33.715Z,126.35
2022-12-23T19:55:36.103Z,115.53
2022-12-23T19:58:41.356Z,132.35
2022-12-23T20:01:44.462Z,156.45
2022-12-23T20:04:47.095Z,120.57
2022-12-23T20:07:49.228Z,127.65
2022-12-23T20:10:51.640Z,128.70
2022-12-23T20:13:55.178Z,127.10
2022-12-23T20:16:57.665Z,125.55
2022-12-23T20:19:59.830Z,150.20
2022-12-23T20:23:02.224Z,191.10
2022-12-23T20:26:05.238Z,142.87
2022-12-23T20:29:08.983Z,131.32
2022-12-23T20:32:11.108Z,141.70
2022-12-23T20:35:13.598Z,99.80
2022-12-23T20:38:15.837Z,83.45
2022-12-23T20:41:21.303Z,73.75
2022-12-23T20:44:34.569Z,93.80
2022-12-23T20:47:38.897Z,93.40
2022-12-23T20:50:41.670Z,106.32
2022-12-23T20:53:44.407Z,99.20
2022-12-23T20:56:46.509Z,129.05
2022-12-23T20:59:49.120Z,122.90
2022-12-23T21:02:51.359Z,104.28
2022-12-23T21:05:56.763Z,127.03
2022-12-23T21:09:00.453Z,63.28
2022-12-23T21:12:03.664Z,78.53
2022-12-23T21:15:06.208Z,81.05
2022-12-23T21:18:08.595Z,64.75
2022-12-23T21:21:12.234Z,70.25
2022-12-23T21:24:15.291Z,61.95
2022-12-23T21:27:17.526Z,63.85
2022-12-23T21:30:20.024Z,66.05
2022-12-23T21:33:22.174Z,64.82
2022-12-23T21:36:27.135Z,60.70
2022-12-23T21:39:29.500Z,58.22
2022-12-23T21:42:31.964Z,61.00
2022-12-23T21:45:34.171Z,61.50
2022-12-23T21:48:37.834Z,65.20
2022-12-23T21:51:41.535Z,63.25
2022-12-23T21:54:44.450Z,63.38
2022-12-23T21:57:47.041Z,63.38
2022-12-23T22:00:49.544Z,64.68
2022-12-23T22:03:53.234Z,60.53
2022-12-23T22:06:55.399Z,67.30
2022-12-23T22:09:57.851Z,63.53
2022-12-23T22:12:59.955Z,60.88
2022-12-23T22:16:04.338Z,62.13
2022-12-23T22:19:08.690Z,60.20
2022-12-23T22:22:11.126Z,65.12
2022-12-23T22:25:13.223Z,88.07
2022-12-23T22:28:15.601Z,74.72
2022-12-23T22:31:38.398Z,75.55
2022-12-23T22:34:40.862Z,81.95
2022-12-23T22:37:42.969Z,72.50
2022-12-23T22:40:49.433Z,72.47
2022-12-23T22:43:51.673Z,76.05
2022-12-23T22:46:54.451Z,78.30
2022-12-23T22:49:56.830Z,85.53
2022-12-23T22:52:59.300Z,96.80
2022-12-23T22:56:03.628Z,100.35
2022-12-23T22:59:06.075Z,108.95
2022-12-23T23:02:08.276Z,136.75
2022-12-23T23:05:13.075Z,89.53
2022-12-23T23:08:15.582Z,100.30
2022-12-23T23:11:18.291Z,93.55
2022-12-23T23:14:20.685Z,83.53
2022-12-23T23:17:26.092Z,100.43
2022-12-23T23:20:28.319Z,122.60
2022-12-23T23:23:30.722Z,90.28
2022-12-23T23:26:32.962Z,90.00
2022-12-23T23:29:35.782Z,95.40
2022-12-23T23:32:37.904Z,81.47
2022-12-23T23:35:40.537Z,101.35
2022-12-23T23:38:42.728Z,72.95
2022-12-23T23:41:45.325Z,92.68
2022-12-23T23:44:47.439Z,72.90
2022-12-23T23:47:49.911Z,61.08
2022-12-23T23:50:52.029Z,83.93
2022-12-23T23:53:54.527Z,64.45
2022-12-23T23:56:56.654Z,62.22
2022-12-23T23:59:59.100Z,62.83
